Glendive, MT

6:12 AM MDT on August 29, 2014 (GMT -0600)
Beach | Change Station
CLOSE
Current Station
Airport
Location: Beach,
Elevation: 2756 ft
Nearby Weather Stations

Elev 2756 ft 46.93 °N, 103.99 °W | Updated 17 minutes ago

Thunderstorm
Thunderstorm
59 °F
Feels Like 59 °F
N
12
Wind Variable Wind from NW
Gusts 10 mph

Today
High -- | Low -- °F
--% Chance of Precip.
Yesterday
High -- | Low -- °F
Precip. -- in
6:14 AM 7:44 PM
Waxing Crescent, 14% visible
Pressure 29.98 in
Visibility 10.0 miles
Clouds
Dew Point 55 °F
Humidity 88%
Rainfall 0.00 in
Snow Depth Not available.
UV Not available.
Pollen 8.70 out of 12
Air Quality Not available.
Flu Activity Not available.
METAR K20U 291155Z AUTO 31010KT 10SM 15/13 A2998 RMK AO2

More Conditions Fewer Conditions

Pressure 29.98 in
Visibility 10.0 miles
Clouds
Dew Point 55 °F
Humidity 88%
Rainfall 0.00 in
Snow Depth Not available.
UV Not available.
Pollen 8.70 out of 12
Air Quality Not available.
Flu Activity Not available.
METAR K20U 291155Z AUTO 31010KT 10SM 15/13 A2998 RMK AO2

More Conditions Fewer Conditions

10-Day Weather Forecast

Almanac

Astronomy

Aug. 29, 2014 Rise Set
Actual Time 6:14 AM MDT 7:44 PM MDT
Civil Twilight 5:42 AM MDT 8:16 PM MDT
Nautical Twilight 5:03 AM MDT 8:54 PM MDT
Astronomical Twilight 4:21 AM MDT 9:36 PM MDT
Moon 10:24 AM MDT 9:24 PM MDT
Length of Visible Light 14h 33m
Length of Day
13h 30m
Tomorrow will be 3m 15s shorter.
Waxing Crescent, 14% of the Moon is Illuminated
Today
Waxing Crescent
Sep 2
First Quarter
Sep 8
Full
Sep 15
Last Quarter
Sep 24
New

Today's Extremes

State Highs State Lows

Community

WunderPhotos

Upload Photos

1,748,217 photos uploaded!

Nearby

Snow Depth

Station Depth Elevation
Crystal Lake 1 in 6050 ft
Cole Creek 0 in 7850 ft
Burnt Mountain 0 in 5880 ft
Daisy Peak 0 in 7600 ft
Spur Park 0 in 8100 ft

Earthquake Activity

City Distance Mag. Time & Date
No recent earthquake activity has been reported nearby.
Minimum magnitude displayed is 2.5.

Coastal Water Temperatures

Place Temperature
No Stations Reporting

Nearby Weather Stations